sensor_id;sensor_type;location;lat;lon;timestamp;P1;durP1;ratioP1;P2;durP2;ratioP2
70301;SDS011;57706;56.326;43.882;2023-02-01T00:02:00;18.65;;;8.25;;
70301;SDS011;57706;56.326;43.882;2023-02-01T00:04:26;17.27;;;8.40;;
70301;SDS011;57706;56.326;43.882;2023-02-01T00:06:52;20.45;;;8.18;;
70301;SDS011;57706;56.326;43.882;2023-02-01T00:09:18;17.60;;;7.13;;
70301;SDS011;57706;56.326;43.882;2023-02-01T00:11:44;19.23;;;8.27;;
70301;SDS011;57706;56.326;43.882;2023-02-01T00:14:10;15.63;;;6.95;;
70301;SDS011;57706;56.326;43.882;2023-02-01T00:16:36;17.25;;;7.43;;
70301;SDS011;57706;56.326;43.882;2023-02-01T00:19:07;19.25;;;8.10;;
70301;SDS011;57706;56.326;43.882;2023-02-01T00:21:36;17.98;;;7.05;;
70301;SDS011;57706;56.326;43.882;2023-02-01T00:24:02;17.48;;;8.15;;
70301;SDS011;57706;56.326;43.882;2023-02-01T00:26:33;17.30;;;7.20;;
70301;SDS011;57706;56.326;43.882;2023-02-01T00:31:46;20.00;;;6.82;;
70301;SDS011;57706;56.326;43.882;2023-02-01T00:34:13;19.60;;;7.95;;
70301;SDS011;57706;56.326;43.882;2023-02-01T00:36:41;20.55;;;8.15;;
70301;SDS011;57706;56.326;43.882;2023-02-01T00:39:08;15.02;;;7.13;;
70301;SDS011;57706;56.326;43.882;2023-02-01T00:41:35;17.92;;;7.28;;
70301;SDS011;57706;56.326;43.882;2023-02-01T00:44:01;20.13;;;7.82;;
70301;SDS011;57706;56.326;43.882;2023-02-01T00:46:29;15.18;;;6.43;;
70301;SDS011;57706;56.326;43.882;2023-02-01T00:48:55;21.02;;;9.00;;
70301;SDS011;57706;56.326;43.882;2023-02-01T00:51:22;21.13;;;8.77;;
70301;SDS011;57706;56.326;43.882;2023-02-01T00:53:49;12.93;;;6.50;;
70301;SDS011;57706;56.326;43.882;2023-02-01T00:56:16;20.70;;;8.07;;
70301;SDS011;57706;56.326;43.882;2023-02-01T00:58:42;18.55;;;7.78;;
70301;SDS011;57706;56.326;43.882;2023-02-01T01:01:10;21.92;;;8.38;;
70301;SDS011;57706;56.326;43.882;2023-02-01T01:03:43;16.52;;;8.32;;
70301;SDS011;57706;56.326;43.882;2023-02-01T01:06:13;21.27;;;9.23;;
70301;SDS011;57706;56.326;43.882;2023-02-01T01:08:41;15.77;;;7.57;;
70301;SDS011;57706;56.326;43.882;2023-02-01T01:11:08;21.35;;;8.75;;
70301;SDS011;57706;56.326;43.882;2023-02-01T01:13:36;13.80;;;6.90;;
70301;SDS011;57706;56.326;43.882;2023-02-01T01:16:04;16.50;;;6.97;;
70301;SDS011;57706;56.326;43.882;2023-02-01T01:18:31;18.48;;;8.30;;
70301;SDS011;57706;56.326;43.882;2023-02-01T01:20:59;19.20;;;7.43;;
70301;SDS011;57706;56.326;43.882;2023-02-01T01:23:25;18.77;;;8.52;;
70301;SDS011;57706;56.326;43.882;2023-02-01T01:25:51;16.67;;;8.38;;
70301;SDS011;57706;56.326;43.882;2023-02-01T01:28:18;21.77;;;8.32;;
70301;SDS011;57706;56.326;43.882;2023-02-01T01:30:44;20.20;;;7.95;;
70301;SDS011;57706;56.326;43.882;2023-02-01T01:33:10;16.30;;;6.75;;
70301;SDS011;57706;56.326;43.882;2023-02-01T01:35:36;18.58;;;7.63;;
70301;SDS011;57706;56.326;43.882;2023-02-01T01:38:02;18.10;;;8.43;;
70301;SDS011;57706;56.326;43.882;2023-02-01T01:40:28;24.67;;;8.18;;
70301;SDS011;57706;56.326;43.882;2023-02-01T01:42:55;15.50;;;6.97;;
70301;SDS011;57706;56.326;43.882;2023-02-01T01:45:27;19.00;;;7.22;;
70301;SDS011;57706;56.326;43.882;2023-02-01T01:47:56;18.15;;;7.55;;
70301;SDS011;57706;56.326;43.882;2023-02-01T01:50:25;19.05;;;8.55;;
70301;SDS011;57706;56.326;43.882;2023-02-01T01:53:04;21.42;;;8.52;;
70301;SDS011;57706;56.326;43.882;2023-02-01T01:55:34;17.98;;;8.10;;
70301;SDS011;57706;56.326;43.882;2023-02-01T01:58:05;17.52;;;8.55;;
70301;SDS011;57706;56.326;43.882;2023-02-01T02:00:33;16.75;;;7.70;;
70301;SDS011;57706;56.326;43.882;2023-02-01T02:03:02;19.00;;;7.80;;
70301;SDS011;57706;56.326;43.882;2023-02-01T02:05:34;18.20;;;8.75;;
70301;SDS011;57706;56.326;43.882;2023-02-01T02:08:00;17.00;;;7.35;;
70301;SDS011;57706;56.326;43.882;2023-02-01T02:10:26;21.35;;;9.23;;
70301;SDS011;57706;56.326;43.882;2023-02-01T02:13:13;20.17;;;8.60;;
70301;SDS011;57706;56.326;43.882;2023-02-01T02:15:42;20.45;;;8.25;;
70301;SDS011;57706;56.326;43.882;2023-02-01T02:18:17;20.25;;;8.82;;
70301;SDS011;57706;56.326;43.882;2023-02-01T02:21:02;20.17;;;8.75;;
70301;SDS011;57706;56.326;43.882;2023-02-01T02:26:31;19.27;;;8.88;;
70301;SDS011;57706;56.326;43.882;2023-02-01T02:35:01;17.95;;;9.80;;
70301;SDS011;57706;56.326;43.882;2023-02-01T02:37:42;13.10;;;6.32;;
70301;SDS011;57706;56.326;43.882;2023-02-01T02:46:14;21.88;;;8.38;;
70301;SDS011;57706;56.326;43.882;2023-02-01T02:51:46;21.08;;;9.52;;
70301;SDS011;57706;56.326;43.882;2023-02-01T02:54:38;23.35;;;9.57;;
70301;SDS011;57706;56.326;43.882;2023-02-01T02:57:18;21.52;;;9.27;;
70301;SDS011;57706;56.326;43.882;2023-02-01T03:00:08;26.85;;;9.68;;
70301;SDS011;57706;56.326;43.882;2023-02-01T03:02:56;19.92;;;8.40;;
70301;SDS011;57706;56.326;43.882;2023-02-01T03:05:42;21.42;;;7.88;;
70301;SDS011;57706;56.326;43.882;2023-02-01T03:08:13;24.10;;;10.30;;
70301;SDS011;57706;56.326;43.882;2023-02-01T03:11:01;22.55;;;9.23;;
70301;SDS011;57706;56.326;43.882;2023-02-01T03:13:38;18.45;;;8.32;;
70301;SDS011;57706;56.326;43.882;2023-02-01T03:21:25;22.63;;;9.30;;
70301;SDS011;57706;56.326;43.882;2023-02-01T03:23:58;20.63;;;8.00;;
70301;SDS011;57706;56.326;43.882;2023-02-01T03:26:30;21.45;;;8.98;;
70301;SDS011;57706;56.326;43.882;2023-02-01T03:29:05;20.55;;;8.38;;
70301;SDS011;57706;56.326;43.882;2023-02-01T03:31:36;18.58;;;8.20;;
70301;SDS011;57706;56.326;43.882;2023-02-01T03:34:03;18.70;;;8.25;;
70301;SDS011;57706;56.326;43.882;2023-02-01T03:36:31;17.38;;;7.88;;
70301;SDS011;57706;56.326;43.882;2023-02-01T03:39:15;22.27;;;9.05;;
70301;SDS011;57706;56.326;43.882;2023-02-01T03:42:34;24.27;;;10.65;;
70301;SDS011;57706;56.326;43.882;2023-02-01T03:47:43;22.42;;;9.75;;
70301;SDS011;57706;56.326;43.882;2023-02-01T03:50:15;23.65;;;9.77;;
70301;SDS011;57706;56.326;43.882;2023-02-01T03:52:45;24.08;;;9.32;;
70301;SDS011;57706;56.326;43.882;2023-02-01T03:55:16;23.42;;;10.43;;
70301;SDS011;57706;56.326;43.882;2023-02-01T03:57:50;23.60;;;9.02;;
70301;SDS011;57706;56.326;43.882;2023-02-01T04:00:24;27.48;;;11.00;;
70301;SDS011;57706;56.326;43.882;2023-02-01T04:02:51;24.75;;;9.00;;
70301;SDS011;57706;56.326;43.882;2023-02-01T04:05:18;21.45;;;8.93;;
70301;SDS011;57706;56.326;43.882;2023-02-01T04:07:54;22.83;;;10.20;;
70301;SDS011;57706;56.326;43.882;2023-02-01T04:10:19;13.88;;;6.43;;
70301;SDS011;57706;56.326;43.882;2023-02-01T04:12:45;18.92;;;9.93;;
70301;SDS011;57706;56.326;43.882;2023-02-01T04:15:11;22.13;;;11.15;;
70301;SDS011;57706;56.326;43.882;2023-02-01T04:17:37;21.80;;;8.73;;
70301;SDS011;57706;56.326;43.882;2023-02-01T04:20:03;26.52;;;10.55;;
70301;SDS011;57706;56.326;43.882;2023-02-01T04:22:30;27.35;;;11.55;;
70301;SDS011;57706;56.326;43.882;2023-02-01T04:24:56;20.15;;;9.57;;
70301;SDS011;57706;56.326;43.882;2023-02-01T04:27:22;21.20;;;10.07;;
70301;SDS011;57706;56.326;43.882;2023-02-01T04:29:48;22.50;;;11.20;;
70301;SDS011;57706;56.326;43.882;2023-02-01T04:32:16;23.27;;;9.20;;
70301;SDS011;57706;56.326;43.882;2023-02-01T04:34:43;21.45;;;8.80;;
70301;SDS011;57706;56.326;43.882;2023-02-01T04:37:09;19.23;;;8.20;;
70301;SDS011;57706;56.326;43.882;2023-02-01T04:39:35;23.05;;;9.00;;
70301;SDS011;57706;56.326;43.882;2023-02-01T04:42:00;27.23;;;11.05;;
70301;SDS011;57706;56.326;43.882;2023-02-01T04:44:26;19.60;;;9.40;;
70301;SDS011;57706;56.326;43.882;2023-02-01T04:46:53;22.92;;;9.07;;
70301;SDS011;57706;56.326;43.882;2023-02-01T04:49:19;24.13;;;10.57;;
70301;SDS011;57706;56.326;43.882;2023-02-01T04:51:46;22.92;;;10.23;;
70301;SDS011;57706;56.326;43.882;2023-02-01T04:54:12;27.48;;;10.52;;
70301;SDS011;57706;56.326;43.882;2023-02-01T04:56:38;27.38;;;11.80;;
70301;SDS011;57706;56.326;43.882;2023-02-01T04:59:05;21.90;;;10.88;;
70301;SDS011;57706;56.326;43.882;2023-02-01T05:01:31;26.33;;;11.88;;
70301;SDS011;57706;56.326;43.882;2023-02-01T05:03:57;23.70;;;11.90;;
70301;SDS011;57706;56.326;43.882;2023-02-01T05:06:23;27.05;;;11.43;;
70301;SDS011;57706;56.326;43.882;2023-02-01T05:09:08;24.58;;;11.52;;
70301;SDS011;57706;56.326;43.882;2023-02-01T05:11:34;21.95;;;11.00;;
70301;SDS011;57706;56.326;43.882;2023-02-01T05:14:18;25.00;;;10.93;;
70301;SDS011;57706;56.326;43.882;2023-02-01T05:16:44;20.95;;;9.00;;
70301;SDS011;57706;56.326;43.882;2023-02-01T05:19:10;26.45;;;11.38;;
70301;SDS011;57706;56.326;43.882;2023-02-01T05:21:36;24.95;;;10.95;;
70301;SDS011;57706;56.326;43.882;2023-02-01T05:24:22;21.50;;;9.38;;
70301;SDS011;57706;56.326;43.882;2023-02-01T05:26:48;25.13;;;10.60;;
70301;SDS011;57706;56.326;43.882;2023-02-01T05:29:14;26.42;;;11.52;;
70301;SDS011;57706;56.326;43.882;2023-02-01T05:31:41;24.08;;;9.68;;
70301;SDS011;57706;56.326;43.882;2023-02-01T05:34:09;23.58;;;9.57;;
70301;SDS011;57706;56.326;43.882;2023-02-01T05:36:34;31.35;;;11.00;;
70301;SDS011;57706;56.326;43.882;2023-02-01T05:39:00;25.10;;;9.27;;
70301;SDS011;57706;56.326;43.882;2023-02-01T05:41:26;25.42;;;9.43;;
70301;SDS011;57706;56.326;43.882;2023-02-01T05:43:52;23.77;;;9.43;;
70301;SDS011;57706;56.326;43.882;2023-02-01T05:46:19;18.98;;;9.73;;
70301;SDS011;57706;56.326;43.882;2023-02-01T05:48:45;25.27;;;10.73;;
70301;SDS011;57706;56.326;43.882;2023-02-01T05:51:11;23.33;;;9.57;;
70301;SDS011;57706;56.326;43.882;2023-02-01T05:53:37;23.90;;;10.18;;
70301;SDS011;57706;56.326;43.882;2023-02-01T05:56:03;15.23;;;7.32;;
70301;SDS011;57706;56.326;43.882;2023-02-01T05:58:30;21.05;;;10.02;;
70301;SDS011;57706;56.326;43.882;2023-02-01T06:00:58;29.27;;;11.63;;
70301;SDS011;57706;56.326;43.882;2023-02-01T06:03:25;25.88;;;11.38;;
70301;SDS011;57706;56.326;43.882;2023-02-01T06:05:51;23.52;;;9.65;;
70301;SDS011;57706;56.326;43.882;2023-02-01T06:08:17;20.17;;;9.45;;
70301;SDS011;57706;56.326;43.882;2023-02-01T06:10:42;21.05;;;10.73;;
70301;SDS011;57706;56.326;43.882;2023-02-01T06:13:08;20.88;;;8.70;;
70301;SDS011;57706;56.326;43.882;2023-02-01T06:15:34;23.77;;;10.50;;
70301;SDS011;57706;56.326;43.882;2023-02-01T06:18:02;24.25;;;9.90;;
70301;SDS011;57706;56.326;43.882;2023-02-01T06:20:29;26.77;;;11.07;;
70301;SDS011;57706;56.326;43.882;2023-02-01T06:22:55;23.90;;;10.15;;
70301;SDS011;57706;56.326;43.882;2023-02-01T06:25:21;25.02;;;10.48;;
70301;SDS011;57706;56.326;43.882;2023-02-01T06:27:47;24.85;;;12.65;;
70301;SDS011;57706;56.326;43.882;2023-02-01T06:30:13;28.35;;;12.80;;
70301;SDS011;57706;56.326;43.882;2023-02-01T06:32:39;27.65;;;10.60;;
70301;SDS011;57706;56.326;43.882;2023-02-01T06:35:06;20.75;;;9.50;;
70301;SDS011;57706;56.326;43.882;2023-02-01T06:37:33;24.23;;;11.75;;
70301;SDS011;57706;56.326;43.882;2023-02-01T06:39:59;23.70;;;10.23;;
70301;SDS011;57706;56.326;43.882;2023-02-01T06:42:25;22.08;;;9.40;;
70301;SDS011;57706;56.326;43.882;2023-02-01T06:44:51;22.65;;;10.45;;
70301;SDS011;57706;56.326;43.882;2023-02-01T06:47:17;25.63;;;12.23;;
70301;SDS011;57706;56.326;43.882;2023-02-01T06:49:42;30.10;;;13.35;;
70301;SDS011;57706;56.326;43.882;2023-02-01T06:52:08;22.23;;;11.02;;
70301;SDS011;57706;56.326;43.882;2023-02-01T06:54:34;30.50;;;13.35;;
70301;SDS011;57706;56.326;43.882;2023-02-01T06:57:02;31.77;;;13.38;;
70301;SDS011;57706;56.326;43.882;2023-02-01T06:59:29;33.53;;;13.52;;
70301;SDS011;57706;56.326;43.882;2023-02-01T07:01:55;32.53;;;13.38;;
70301;SDS011;57706;56.326;43.882;2023-02-01T07:04:20;30.23;;;12.98;;
70301;SDS011;57706;56.326;43.882;2023-02-01T07:06:46;29.35;;;13.75;;
70301;SDS011;57706;56.326;43.882;2023-02-01T07:09:12;24.13;;;10.52;;
70301;SDS011;57706;56.326;43.882;2023-02-01T07:11:39;28.10;;;11.45;;
70301;SDS011;57706;56.326;43.882;2023-02-01T07:14:09;22.23;;;9.30;;
70301;SDS011;57706;56.326;43.882;2023-02-01T07:16:35;23.48;;;9.70;;
70301;SDS011;57706;56.326;43.882;2023-02-01T07:19:01;24.98;;;9.70;;
70301;SDS011;57706;56.326;43.882;2023-02-01T07:21:27;23.63;;;9.95;;
70301;SDS011;57706;56.326;43.882;2023-02-01T07:23:54;19.83;;;9.30;;
70301;SDS011;57706;56.326;43.882;2023-02-01T07:26:20;23.23;;;11.30;;
70301;SDS011;57706;56.326;43.882;2023-02-01T07:31:30;23.60;;;11.40;;
70301;SDS011;57706;56.326;43.882;2023-02-01T07:33:56;25.48;;;11.00;;
70301;SDS011;57706;56.326;43.882;2023-02-01T07:36:23;25.38;;;11.55;;
70301;SDS011;57706;56.326;43.882;2023-02-01T07:38:49;28.92;;;12.68;;
70301;SDS011;57706;56.326;43.882;2023-02-01T07:41:35;25.48;;;11.80;;
70301;SDS011;57706;56.326;43.882;2023-02-01T07:44:01;25.10;;;11.32;;
70301;SDS011;57706;56.326;43.882;2023-02-01T07:46:27;27.52;;;11.73;;
70301;SDS011;57706;56.326;43.882;2023-02-01T07:48:53;19.92;;;9.30;;
70301;SDS011;57706;56.326;43.882;2023-02-01T07:51:18;23.33;;;9.50;;
70301;SDS011;57706;56.326;43.882;2023-02-01T07:53:44;23.05;;;10.95;;
70301;SDS011;57706;56.326;43.882;2023-02-01T07:56:15;27.15;;;11.38;;
70301;SDS011;57706;56.326;43.882;2023-02-01T07:58:43;25.08;;;11.02;;
70301;SDS011;57706;56.326;43.882;2023-02-01T08:01:16;25.75;;;11.57;;
70301;SDS011;57706;56.326;43.882;2023-02-01T08:03:50;27.13;;;11.43;;
70301;SDS011;57706;56.326;43.882;2023-02-01T08:06:18;22.45;;;9.27;;
70301;SDS011;57706;56.326;43.882;2023-02-01T08:08:45;26.83;;;10.73;;
70301;SDS011;57706;56.326;43.882;2023-02-01T08:11:12;22.17;;;11.40;;
70301;SDS011;57706;56.326;43.882;2023-02-01T08:13:39;25.88;;;9.80;;
70301;SDS011;57706;56.326;43.882;2023-02-01T08:16:05;23.50;;;10.25;;
70301;SDS011;57706;56.326;43.882;2023-02-01T08:18:36;18.85;;;8.63;;
70301;SDS011;57706;56.326;43.882;2023-02-01T08:21:06;21.25;;;10.38;;
70301;SDS011;57706;56.326;43.882;2023-02-01T08:23:34;31.35;;;11.50;;
70301;SDS011;57706;56.326;43.882;2023-02-01T08:26:11;24.23;;;11.15;;
70301;SDS011;57706;56.326;43.882;2023-02-01T08:28:43;29.25;;;13.23;;
70301;SDS011;57706;56.326;43.882;2023-02-01T08:31:14;21.48;;;10.90;;
70301;SDS011;57706;56.326;43.882;2023-02-01T08:33:42;26.38;;;11.43;;
70301;SDS011;57706;56.326;43.882;2023-02-01T08:36:10;27.45;;;12.60;;
70301;SDS011;57706;56.326;43.882;2023-02-01T08:38:37;28.52;;;11.18;;
70301;SDS011;57706;56.326;43.882;2023-02-01T08:41:05;28.67;;;11.10;;
70301;SDS011;57706;56.326;43.882;2023-02-01T08:43:42;22.80;;;9.27;;
70301;SDS011;57706;56.326;43.882;2023-02-01T08:46:08;21.77;;;9.75;;
70301;SDS011;57706;56.326;43.882;2023-02-01T08:48:35;18.17;;;8.93;;
70301;SDS011;57706;56.326;43.882;2023-02-01T08:51:06;19.95;;;9.10;;
70301;SDS011;57706;56.326;43.882;2023-02-01T08:53:36;24.77;;;11.45;;
70301;SDS011;57706;56.326;43.882;2023-02-01T08:56:05;23.67;;;10.07;;
70301;SDS011;57706;56.326;43.882;2023-02-01T08:58:32;24.02;;;10.38;;
70301;SDS011;57706;56.326;43.882;2023-02-01T09:01:02;24.08;;;10.60;;
70301;SDS011;57706;56.326;43.882;2023-02-01T09:03:34;26.48;;;10.80;;
70301;SDS011;57706;56.326;43.882;2023-02-01T09:06:01;19.00;;;8.82;;
70301;SDS011;57706;56.326;43.882;2023-02-01T09:08:28;22.00;;;10.02;;
70301;SDS011;57706;56.326;43.882;2023-02-01T09:10:57;22.92;;;10.32;;
70301;SDS011;57706;56.326;43.882;2023-02-01T09:13:26;22.55;;;9.68;;
70301;SDS011;57706;56.326;43.882;2023-02-01T09:15:52;20.67;;;9.73;;
70301;SDS011;57706;56.326;43.882;2023-02-01T09:18:19;22.00;;;9.68;;
70301;SDS011;57706;56.326;43.882;2023-02-01T09:20:44;23.30;;;10.00;;
70301;SDS011;57706;56.326;43.882;2023-02-01T09:23:10;26.23;;;11.48;;
70301;SDS011;57706;56.326;43.882;2023-02-01T09:25:36;28.35;;;11.88;;
70301;SDS011;57706;56.326;43.882;2023-02-01T09:28:03;25.67;;;11.15;;
70301;SDS011;57706;56.326;43.882;2023-02-01T09:30:31;21.10;;;9.35;;
70301;SDS011;57706;56.326;43.882;2023-02-01T09:32:58;22.08;;;9.75;;
70301;SDS011;57706;56.326;43.882;2023-02-01T09:35:24;26.60;;;12.73;;
70301;SDS011;57706;56.326;43.882;2023-02-01T09:37:51;23.75;;;10.18;;
70301;SDS011;57706;56.326;43.882;2023-02-01T09:40:36;23.00;;;9.65;;
70301;SDS011;57706;56.326;43.882;2023-02-01T09:43:14;16.67;;;7.68;;
70301;SDS011;57706;56.326;43.882;2023-02-01T09:45:55;25.42;;;11.00;;
70301;SDS011;57706;56.326;43.882;2023-02-01T09:48:36;24.65;;;11.10;;
70301;SDS011;57706;56.326;43.882;2023-02-01T09:51:07;24.67;;;10.52;;
70301;SDS011;57706;56.326;43.882;2023-02-01T09:53:41;22.75;;;11.82;;
70301;SDS011;57706;56.326;43.882;2023-02-01T09:56:15;26.55;;;11.23;;
70301;SDS011;57706;56.326;43.882;2023-02-01T09:58:52;25.45;;;10.50;;
70301;SDS011;57706;56.326;43.882;2023-02-01T10:01:28;25.67;;;10.50;;
70301;SDS011;57706;56.326;43.882;2023-02-01T10:04:11;26.55;;;11.30;;
70301;SDS011;57706;56.326;43.882;2023-02-01T10:12:30;27.95;;;10.98;;
70301;SDS011;57706;56.326;43.882;2023-02-01T10:26:44;33.40;;;13.85;;
70301;SDS011;57706;56.326;43.882;2023-02-01T10:29:20;27.23;;;12.10;;
70301;SDS011;57706;56.326;43.882;2023-02-01T10:31:50;28.98;;;13.32;;
70301;SDS011;57706;56.326;43.882;2023-02-01T10:34:18;30.33;;;13.57;;
70301;SDS011;57706;56.326;43.882;2023-02-01T10:36:59;31.00;;;12.57;;
70301;SDS011;57706;56.326;43.882;2023-02-01T10:39:46;29.75;;;12.10;;
70301;SDS011;57706;56.326;43.882;2023-02-01T10:42:14;37.58;;;14.68;;
70301;SDS011;57706;56.326;43.882;2023-02-01T10:44:44;36.33;;;15.05;;
70301;SDS011;57706;56.326;43.882;2023-02-01T10:47:13;37.05;;;15.68;;
70301;SDS011;57706;56.326;43.882;2023-02-01T10:52:25;37.08;;;16.60;;
70301;SDS011;57706;56.326;43.882;2023-02-01T10:57:58;37.05;;;16.92;;
70301;SDS011;57706;56.326;43.882;2023-02-01T11:00:34;35.28;;;14.95;;
70301;SDS011;57706;56.326;43.882;2023-02-01T11:03:36;33.00;;;15.00;;
70301;SDS011;57706;56.326;43.882;2023-02-01T11:08:50;37.72;;;15.85;;
70301;SDS011;57706;56.326;43.882;2023-02-01T11:11:17;34.45;;;16.75;;
70301;SDS011;57706;56.326;43.882;2023-02-01T11:13:44;36.53;;;15.27;;
70301;SDS011;57706;56.326;43.882;2023-02-01T11:16:13;38.78;;;15.68;;
70301;SDS011;57706;56.326;43.882;2023-02-01T11:18:40;36.85;;;17.35;;
70301;SDS011;57706;56.326;43.882;2023-02-01T11:21:07;34.80;;;16.35;;
70301;SDS011;57706;56.326;43.882;2023-02-01T11:23:39;39.63;;;16.52;;
70301;SDS011;57706;56.326;43.882;2023-02-01T11:26:09;35.55;;;16.48;;
70301;SDS011;57706;56.326;43.882;2023-02-01T11:28:39;30.23;;;12.52;;
70301;SDS011;57706;56.326;43.882;2023-02-01T11:31:10;34.30;;;14.65;;
70301;SDS011;57706;56.326;43.882;2023-02-01T11:33:38;34.20;;;15.77;;
70301;SDS011;57706;56.326;43.882;2023-02-01T11:36:12;35.80;;;15.93;;
70301;SDS011;57706;56.326;43.882;2023-02-01T11:38:46;44.80;;;19.65;;
70301;SDS011;57706;56.326;43.882;2023-02-01T11:46:41;35.20;;;14.68;;
70301;SDS011;57706;56.326;43.882;2023-02-01T11:49:14;32.28;;;13.30;;
70301;SDS011;57706;56.326;43.882;2023-02-01T11:57:25;33.33;;;15.05;;
70301;SDS011;57706;56.326;43.882;2023-02-01T12:19:31;38.05;;;12.23;;
70301;SDS011;57706;56.326;43.882;2023-02-01T12:22:51;28.10;;;10.52;;
70301;SDS011;57706;56.326;43.882;2023-02-01T12:25:12;30.83;;;11.77;;
70301;SDS011;57706;56.326;43.882;2023-02-01T12:28:04;31.77;;;11.80;;
70301;SDS011;57706;56.326;43.882;2023-02-01T12:46:40;34.42;;;12.88;;
70301;SDS011;57706;56.326;43.882;2023-02-01T12:50:12;38.42;;;13.95;;
70301;SDS011;57706;56.326;43.882;2023-02-01T12:57:42;38.30;;;14.35;;
70301;SDS011;57706;56.326;43.882;2023-02-01T13:00:17;30.88;;;11.75;;
70301;SDS011;57706;56.326;43.882;2023-02-01T13:03:26;30.85;;;12.70;;
70301;SDS011;57706;56.326;43.882;2023-02-01T13:11:34;38.58;;;14.38;;
70301;SDS011;57706;56.326;43.882;2023-02-01T13:14:22;38.50;;;14.98;;
70301;SDS011;57706;56.326;43.882;2023-02-01T13:19:24;36.50;;;13.30;;
70301;SDS011;57706;56.326;43.882;2023-02-01T13:22:05;37.22;;;14.05;;
70301;SDS011;57706;56.326;43.882;2023-02-01T13:24:42;39.35;;;14.25;;
70301;SDS011;57706;56.326;43.882;2023-02-01T13:27:12;41.22;;;13.68;;
70301;SDS011;57706;56.326;43.882;2023-02-01T13:30:04;40.40;;;15.07;;
70301;SDS011;57706;56.326;43.882;2023-02-01T13:35:22;39.90;;;16.25;;
70301;SDS011;57706;56.326;43.882;2023-02-01T13:38:02;40.40;;;16.67;;
70301;SDS011;57706;56.326;43.882;2023-02-01T13:40:52;40.50;;;16.50;;
70301;SDS011;57706;56.326;43.882;2023-02-01T13:43:43;39.95;;;14.38;;
70301;SDS011;57706;56.326;43.882;2023-02-01T13:46:13;40.40;;;16.38;;
70301;SDS011;57706;56.326;43.882;2023-02-01T13:48:50;36.92;;;15.48;;
70301;SDS011;57706;56.326;43.882;2023-02-01T13:51:31;39.60;;;14.30;;
70301;SDS011;57706;56.326;43.882;2023-02-01T13:54:00;28.52;;;12.77;;
70301;SDS011;57706;56.326;43.882;2023-02-01T13:56:26;39.22;;;15.50;;
70301;SDS011;57706;56.326;43.882;2023-02-01T13:58:52;38.95;;;14.63;;
70301;SDS011;57706;56.326;43.882;2023-02-01T14:11:43;37.72;;;14.55;;
70301;SDS011;57706;56.326;43.882;2023-02-01T14:21:53;40.95;;;15.10;;
70301;SDS011;57706;56.326;43.882;2023-02-01T14:24:28;44.15;;;15.50;;
70301;SDS011;57706;56.326;43.882;2023-02-01T14:26:59;48.08;;;17.40;;
70301;SDS011;57706;56.326;43.882;2023-02-01T14:29:35;43.53;;;15.55;;
70301;SDS011;57706;56.326;43.882;2023-02-01T14:32:07;38.72;;;14.90;;
70301;SDS011;57706;56.326;43.882;2023-02-01T14:58:46;42.90;;;16.63;;
70301;SDS011;57706;56.326;43.882;2023-02-01T15:01:32;51.88;;;16.58;;
70301;SDS011;57706;56.326;43.882;2023-02-01T15:04:09;33.63;;;13.40;;
70301;SDS011;57706;56.326;43.882;2023-02-01T15:06:51;44.17;;;16.45;;
70301;SDS011;57706;56.326;43.882;2023-02-01T15:09:32;31.70;;;12.57;;
70301;SDS011;57706;56.326;43.882;2023-02-01T15:17:18;50.92;;;18.17;;
70301;SDS011;57706;56.326;43.882;2023-02-01T15:19:58;41.83;;;16.58;;
70301;SDS011;57706;56.326;43.882;2023-02-01T15:22:37;45.78;;;16.95;;
70301;SDS011;57706;56.326;43.882;2023-02-01T15:25:03;51.45;;;19.08;;
70301;SDS011;57706;56.326;43.882;2023-02-01T15:27:29;44.05;;;17.02;;
70301;SDS011;57706;56.326;43.882;2023-02-01T15:30:07;54.55;;;18.50;;
70301;SDS011;57706;56.326;43.882;2023-02-01T15:32:35;45.75;;;17.92;;
70301;SDS011;57706;56.326;43.882;2023-02-01T15:35:05;48.88;;;19.02;;
70301;SDS011;57706;56.326;43.882;2023-02-01T15:37:51;49.05;;;19.05;;
70301;SDS011;57706;56.326;43.882;2023-02-01T15:40:20;47.83;;;17.98;;
70301;SDS011;57706;56.326;43.882;2023-02-01T15:42:57;50.55;;;17.20;;
70301;SDS011;57706;56.326;43.882;2023-02-01T15:45:25;49.55;;;17.70;;
70301;SDS011;57706;56.326;43.882;2023-02-01T15:47:55;47.55;;;17.00;;
70301;SDS011;57706;56.326;43.882;2023-02-01T15:50:23;34.92;;;13.10;;
70301;SDS011;57706;56.326;43.882;2023-02-01T15:52:50;47.28;;;17.20;;
70301;SDS011;57706;56.326;43.882;2023-02-01T16:00:50;37.20;;;14.43;;
70301;SDS011;57706;56.326;43.882;2023-02-01T16:03:36;48.00;;;16.52;;
70301;SDS011;57706;56.326;43.882;2023-02-01T16:06:08;47.00;;;17.23;;
70301;SDS011;57706;56.326;43.882;2023-02-01T16:08:55;50.78;;;16.48;;
70301;SDS011;57706;56.326;43.882;2023-02-01T16:12:01;44.70;;;16.27;;
70301;SDS011;57706;56.326;43.882;2023-02-01T16:14:29;44.15;;;18.13;;
70301;SDS011;57706;56.326;43.882;2023-02-01T16:16:56;45.72;;;17.15;;
70301;SDS011;57706;56.326;43.882;2023-02-01T16:19:23;48.75;;;17.77;;
70301;SDS011;57706;56.326;43.882;2023-02-01T16:21:53;48.13;;;17.75;;
70301;SDS011;57706;56.326;43.882;2023-02-01T16:24:20;52.10;;;19.67;;
70301;SDS011;57706;56.326;43.882;2023-02-01T16:26:48;38.53;;;14.98;;
70301;SDS011;57706;56.326;43.882;2023-02-01T16:29:14;38.88;;;14.50;;
70301;SDS011;57706;56.326;43.882;2023-02-01T16:31:41;42.55;;;16.73;;
70301;SDS011;57706;56.326;43.882;2023-02-01T16:34:13;44.47;;;17.83;;
70301;SDS011;57706;56.326;43.882;2023-02-01T16:36:42;33.45;;;13.02;;
70301;SDS011;57706;56.326;43.882;2023-02-01T16:39:12;38.60;;;15.88;;
70301;SDS011;57706;56.326;43.882;2023-02-01T16:41:39;34.50;;;14.85;;
70301;SDS011;57706;56.326;43.882;2023-02-01T16:44:05;31.88;;;13.13;;
70301;SDS011;57706;56.326;43.882;2023-02-01T16:46:32;34.30;;;14.77;;
70301;SDS011;57706;56.326;43.882;2023-02-01T16:49:00;38.85;;;17.52;;
70301;SDS011;57706;56.326;43.882;2023-02-01T16:51:30;39.65;;;17.48;;
70301;SDS011;57706;56.326;43.882;2023-02-01T16:53:58;47.90;;;19.20;;
70301;SDS011;57706;56.326;43.882;2023-02-01T16:56:28;41.40;;;17.73;;
70301;SDS011;57706;56.326;43.882;2023-02-01T16:58:56;39.97;;;18.05;;
70301;SDS011;57706;56.326;43.882;2023-02-01T17:01:22;42.17;;;17.05;;
70301;SDS011;57706;56.326;43.882;2023-02-01T17:04:08;41.40;;;15.57;;
70301;SDS011;57706;56.326;43.882;2023-02-01T17:06:35;41.35;;;15.95;;
70301;SDS011;57706;56.326;43.882;2023-02-01T17:09:04;43.53;;;18.33;;
70301;SDS011;57706;56.326;43.882;2023-02-01T17:11:30;46.35;;;17.10;;
70301;SDS011;57706;56.326;43.882;2023-02-01T17:14:00;44.85;;;16.30;;
70301;SDS011;57706;56.326;43.882;2023-02-01T17:16:38;43.05;;;17.60;;
70301;SDS011;57706;56.326;43.882;2023-02-01T17:19:06;49.05;;;19.00;;
70301;SDS011;57706;56.326;43.882;2023-02-01T17:21:39;51.10;;;17.77;;
70301;SDS011;57706;56.326;43.882;2023-02-01T17:24:09;45.10;;;18.33;;
70301;SDS011;57706;56.326;43.882;2023-02-01T17:26:41;47.08;;;17.33;;
70301;SDS011;57706;56.326;43.882;2023-02-01T17:29:08;42.90;;;17.85;;